Du har inga inställningar för hoppväder.nu

Hoppväder.nu

Senast uppdaterat 17:03

UTC-tid

2024-05-30 kl. 15:03


Sol och måne

Solen går upp 4:25 och går ner 22:37 (beräknade cirkatider)
Nästa fullmåne blir om 23 dagar (2024-06-22)

METAR

ESMK (Everöd)
(13 minuter sedan)
ESMK 301450Z 11008KT CAVOK 18/16 Q1008=



ESMS (Malmö)
(13 minuter sedan)
ESMS 301450Z 12008KT 090V150 CAVOK 20/13 Q1007=



ESMX (Växjö)
(13 minuter sedan)
ESMX 301450Z 09007KT 040V120 CAVOK 22/10 Q1008=



ESDF (Ronneby)
(13 minuter sedan)
ESDF 301450Z 14009KT 100V170 9999 FEW045 22/12 Q1008=



EKRN (Rønne, Bornholm)
(43 minuter sedan)
EKRN 301420Z AUTO 09013KT 9999 NCD 22/13 Q1007=



TAF

ESMK (Everöd)
(49 minuter sedan)
ESMK 301414Z 3015/3019 10008KT CAVOK=



ESMS (Malmö)
(42 minuter sedan)
ESMS 301421Z 3015/3115 14007KT 9999 SCT030 TEMPO 3015/3024 SCT040CB TEMPO 3100/3109 4000 SHRA BR BKN010 BKN040CB BECMG 3109/3111 08010KT TEMPO 3109/3115 SCT030CB=



ESMX (Växjö)
(33 minuter sedan)
ESMX 301430Z 3015/3024 12008KT CAVOK=



ESDF (Ronneby)
(33 minuter sedan)
ESDF 301430Z 3015/3022 09008KT CAVOK=



EKRN (Rønne, Bornholm)
(54 minuter sedan)
EKRN 301409Z 3015/3024 09008KT 9999 SCT100 PROB40 3020/3024 BKN005=





Kodnycklar till TAF och METAR






LHP

(Everöd är område se11e i Hela Område 1)

Översikt

ÖVERSIKT FÖR OMRÅDE se1 UTFÄRDAD 301116

GÄLLANDE DEN 30 MAJ 2024 MELLAN 12 OCH 20 UTC


Väderöversikt
Se väderöversikt för område se2 + se3
Sikt under 5 kilometer eller molnbas under 1000 fot
12-16UTC: I hela området

Måttlig eller svår isbildning
Väntas inte förekomma under perioden
Måttlig eller svår turbulens
Väntas inte förekomma under perioden


Hela Område 1

PROGNOS FÖR OMRÅDE se11 UTFÄRDAD 301116
GÄLLANDE DEN 30 MAJ 2024 MELLAN 12 OCH 20 UTC


Måttlig eller svår turbulens
12-20UTC: I hela området: Väntas inte förekomma under perioden

Måttlig eller svår isbildning
12-20UTC: I hela området: Väntas inte förekomma under perioden

Sikt/Väder/Moln
12-18UTC: Område se11g: Sikt >8km, lokalt 3km - 5km i regnskurar, åska. Molnbas >4000ft, lokalt 1000ft - 1500ft.

12-20UTC: Område se11a, se11b, se11c, se11d, se11e, se11f, se11h, se11i: Sikt >8km, lokalt 3km - 5km i regnskurar, åska. Molnbas >4000ft, lokalt 1000ft - 1500ft.

18-20UTC: Område se11g: Sikt 3km - >8km i regnskurar, åska, regn. Molnbas 1000ft - >4000ft.


Molnöversida
12-20UTC: I hela området: Molnöversida > FL125.

CB/TCU Moln
12-18UTC: I hela området: ocnl cb
18-20UTC: Område se11a, se11b, se11c, se11d, se11e, se11f, se11h, se11i: isol cb
Område se11g: isol cb, isol embd cb


Nollgradersisoterm
12-16UTC: I hela området: Noll grader FL070 - FL090.
16-20UTC: I hela området: Noll grader FL075 - FL095.

Vind vid marken
12-14UTC: Område se11a: SO/0-15 knop, byar upp till 20 knop.
Område se11b: O-SO/0-11 knop, byar upp till 14 knop.
Område se11c: S/1-8 knop, byar upp till 19 knop.
Område se11d: SO/0-12 knop, byar upp till 20 knop.
Område se11e: O-SO/4-9 knop, byar upp till 18 knop.
Område se11f: SO/3-8 knop, byar upp till 17 knop.
Område se11g: O/4-9 knop, byar upp till 15 knop.
Område se11h: O/2-14 knop, byar upp till 17 knop.
Område se11i: O/1-14 knop, byar upp till 21 knop.

14-16UTC: Område se11a: O-SO/0-13 knop, byar upp till 21 knop.
Område se11b: NO-O/0-14 knop, byar upp till 18 knop.
Område se11c: S/1-9 knop, byar upp till 16 knop.
Område se11d: Vrb/0-11 knop, byar upp till 20 knop.
Område se11e: SO/4-9 knop, byar upp till 19 knop.
Område se11f: O-SO/3-10 knop, byar upp till 18 knop.
Område se11g: NO-O/3-9 knop, byar upp till 14 knop.
Område se11h: O/1-13 knop, byar upp till 19 knop.
Område se11i: NO-O/1-12 knop, byar upp till 20 knop.

16-18UTC: Område se11a: O-SO/0-10 knop, byar upp till 15 knop.
Område se11b: NO-O/0-12 knop, byar upp till 15 knop.
Område se11c: Vrb/0-6 knop, byar upp till 15 knop.
Område se11d: NO/0-9 knop, byar upp till 17 knop.
Område se11e: O-SO/3-9 knop, byar upp till 18 knop.
Område se11f: O/0-8 knop, byar upp till 16 knop.
Område se11g: NO/2-12 knop, byar upp till 15 knop.
Område se11h: NO-O/1-13 knop, byar upp till 18 knop.
Område se11i: NO-O/2-14 knop, byar upp till 18 knop.

18-20UTC: Område se11a: NO-O/0-10 knop, byar upp till 13 knop.
Område se11b: NO-O/3-11 knop, byar upp till 15 knop.
Område se11c: NO/2-8 knop.
Område se11d: NO-O/0-9 knop, byar upp till 12 knop.
Område se11e: O-SO/1-9 knop, byar upp till 16 knop.
Område se11f: NO-O/2-10 knop, byar upp till 18 knop.
Område se11g: NO-O/3-16 knop, byar upp till 20 knop.
Område se11h: O/0-16 knop, byar upp till 19 knop.
Område se11i: NO-O/5-17 knop, byar upp till 21 knop.


Genomsnittlig vind och temperatur för området

2000ft:
12-14UTC: 140/13kt +13.
14-16UTC: 130/12kt +13.
16-18UTC: 110/13kt +14.
18-20UTC: 110/19kt +14.

FL050:
12-14UTC: 160/16kt +7.
14-16UTC: 150/14kt +7.
16-18UTC: 140/12kt +7.
18-20UTC: 120/16kt +8.

FL100:
12-16UTC: 170/19kt -3.
16-18UTC: 170/16kt -2.
18-20UTC: 140/15kt -2.

Lägsta QNH
12-14UTC: I hela området: 1007 hPa
14-18UTC: I hela området: 1006 hPa
18-20UTC: I hela området: 1005 hPa

OBS! endast utbredd måttlig eller svår isbildning och turbulens prognostiseras i LLF.
Avsaknad av isbildning och turbulens i prognosen utesluter inte förekomst av lätt isbildning och turbulens.
För indikation på lätt isbildning, var vänlig kontrollera om prognosen för molntopp ligger högre än nollgradersisotermen.
Förekomst av TCU eller CB medför alltid en risk för måttlig eller svår isbildning och turbulens även om det inte framgår explicit av prognosen.






Spotting

Hur fungerar spotthjälpen och Vindkartan?

Markvind är ca 2-5 m/s med byar på 10 m/s.
Vind på 600 m ca 6 m/s.
Vind på 1500 m ca 7 m/s.
Vind på 3000 m ca 10 m/s.
KalleDavid flyger ca 34 m/s över marken på finalen.
Du driver ca 440 m bakåt i frifall. (586 m)
Lämplig spot är 5 sekunder eller 170 m efter gropen.
(9 s eller 306 m)
För små grupper eller ensamhoppare bör man vänta 4-6 sekunder mellan grupperna.
För större grupper bör man vänta 9-11 sekunder mellan grupperna.


Vindkartan

Senast uppdaterad 17:03




All data kommer från LFV.se